Ana Sayfa
METAR-TAF:

METAR-TAF

Havaalanları :

Sussex County Airport

Georgetown, Delaware, Amerika Birleşik Devletleri

Enlem: 38-41-24N, Boylam: 075-21-45W, yükseklik: 15 m

Güncel hava durumu gözlemi

Rapor saat 10:19 UTC de 26 dakika önce yapıldı.
Rüzgar değişken yönden 5 kt
Sıcaklık 2°C
Nem 93%
Basınç 1024 hPa
Görüş mesafesi: 9.7 km
900 ft yükseklikte az bulutlu
1300 ft yükseklikte parçalı bulutlu
4400 ft yükseklikte çok bulutlu
hafif yağmur, Pus

METAR: KGED 111019Z AUTO VRB05KT 6SM -RA BR FEW009 SCT013 OVC044 02/01 A3024 RMK AO2 P0001 T00170006

Saat: 05:45 (10:45 UTC)


TAF: eksik

4.000'den fazla havaalanı için hava durumu gözlemleri ve tahminleri (METAR ve TAF raporları).

Kullanılabilir istasyonlar harita üzerinde sarı ve kırmızı noktalarla gösterilir.

İstasyonun adını görmek için fareyi noktanın üzerinde gezdirin.

Sonrasında hava gözlem ve tahminlerini görmek için tıklayın.

Haritayı değiştirmek için: yaklaştırmak için siyah artı işaretli yeşil düğmeye ve uzaklaştırmak için de eksi işaretli düğmeye hızla tıklayın; bitişik haritalar için yeşil okları kullanın.


METAR-TAF: